This is the latest recevied weather packets stored in our database for station/object K6CEG. If no packets are shown the sender has not sent any weather packets the latest 10 day(s).
| Time | Temp. | Humidity | Pressure | Rain* | Wind** | Luminosity | Snow |
|---|---|---|---|---|---|---|---|
| 1788294721 | 30° C | 36% | 1016.6 hPa | 0 mm | - | 407 W/m² | - |
| 1788294421 | 30° C | 31% | 1016.7 hPa | 0 mm | - | 715 W/m² | - |
| 1788294116 | 30° C | 31% | 1016.7 hPa | 0 mm | - | 711 W/m² | - |
| 1788293812 | 30° C | 32% | 1016.9 hPa | 0 mm | - | 682 W/m² | - |
| 1788293511 | 30° C | 30% | 1017 hPa | 0 mm | - | 695 W/m² | - |
| 1788293211 | 29.44° C | 32% | 1016.8 hPa | 0 mm | - | 710 W/m² | - |
| 1788292906 | 29.44° C | 32% | 1017.1 hPa | 0 mm | - | 663 W/m² | - |
| 1788292603 | 30° C | 33% | 1016.9 hPa | 0 mm | - | 619 W/m² | - |
| 1788292298 | 28.89° C | 35% | 1017.2 hPa | 0 mm | - | 610 W/m² | - |
| 1788291994 | 29.44° C | 34% | 1017.3 hPa | 0 mm | - | 665 W/m² | - |
| 1788291689 | 30° C | 32% | 1017.2 hPa | 0 mm | - | 712 W/m² | - |
| 1788291384 | 30° C | 36% | 1017 hPa | 0 mm | - | 677 W/m² | - |
| 1788291078 | 29.44° C | 40% | 1017.3 hPa | 0 mm | - | 657 W/m² | - |
| 1788290773 | 29.44° C | 37% | 1017.4 hPa | 0 mm | - | 690 W/m² | - |
| 1788290486 | 29.44° C | 39% | 1017.3 hPa | 0 mm | - | 712 W/m² | - |
| 1788290165 | 28.89° C | 41% | 1017.4 hPa | 0 mm | - | 691 W/m² | - |
| 1788289861 | 28.89° C | 44% | 1017.2 hPa | 0 mm | - | 703 W/m² | - |
| 1788289556 | 29.44° C | 44% | 1017.5 hPa | 0 mm | - | 767 W/m² | - |
| 1788289255 | 28.89° C | 45% | 1017.6 hPa | 0 mm | - | 808 W/m² | - |
| 1788288954 | 27.78° C | 47% | 1017.3 hPa | 0 mm | - | 812 W/m² | - |
| 1788288653 | 27.78° C | 48% | 1017.7 hPa | 0 mm | - | 806 W/m² | - |
| 1788288348 | 27.78° C | 48% | 1017.5 hPa | 0 mm | - | 768 W/m² | - |
| 1788288044 | 27.22° C | 49% | 1017.6 hPa | 0 mm | - | 742 W/m² | - |
| 1788287744 | 26.67° C | 50% | 1017.8 hPa | 0 mm | - | 745 W/m² | - |
| 1788287439 | 27.78° C | 49% | 1017.4 hPa | 0 mm | - | 759 W/m² | - |
* Rain latest hour (hover to see other rain measurements)
** Current wind speed in m/s (hover to see current wind gust speed)